KBAD/BAD METAR and TAF weather

Enter ICAO airport designator
Station Type Date Time Source
KBAD METAR 2022/10/01 08:55 UTC NOAA

KBAD 010855Z AUTO 00000KT 10SM CLR 11/09 A3000 RMK AO2 SLP162 T01050088 55003


Station Type Date Time Source
KBAD Decoded METAR 2022/10/01 08:55 UTC NOAA

Barksdale Air Force Base, LA, United States (KBAD) 32-30N 093-40W
Oct 01, 2022 - 04:55 AM EDT / 2022.10.01 0855 UTC
Wind: Calm:0
Visibility: 10 mile(s):0
Sky conditions: clear
Temperature: 50.9 F (10.5 C)
Dew Point: 47.8 F (8.8 C)
Relative Humidity: 89%
Pressure (altimeter): 30 in. Hg (1015 hPa)
Pressure tendency: 0.01 inches (0.3 hPa) lower than three hours ago
ob: KBAD 010855Z AUTO 00000KT 10SM CLR 11/09 A3000 RMK AO2 SLP162 T01050088 55003
cycle: 9

Station Type Date Time Source
KBAD TAF 2022/10/01 04:56 UTC NOAA

TAF KBAD 010400Z 0104/0210 03003KT 9999 SKC QNH2999INS
BECMG 0115/0116 02007KT 9999 SKC QNH2996INS WND 00000KT AFT 0201 TX27/0121Z TN09/0112Z LAST NO
AMDS AFT 0104 NEXT 0112

Example: see airport list